Time;durP1;ratioP1;P1;durP2;ratioP2;P2;SDS_P1;SDS_P2;PMS_P1;PMS_P2;Temp;Humidity;BMP_temperature;BMP_pressure;BME280_temperature;BME280_humidity;BME280_pressure;Samples;Min_cycle;Max_cycle;Signal;HPM_P1;HPM_P2
2022/04/20 00:00:19;;;;;;;1.62;1.00;;;0.70;1.40;;;1.56;100.00;95094.09;649006;216;31488;-74
2022/04/20 00:03:01;;;;;;;0.70;0.60;;;0.50;1.40;;;1.54;100.00;95087.30;620119;222;42502;-75
2022/04/20 00:05:44;;;;;;;0.90;0.50;;;0.50;1.40;;;1.54;100.00;95084.20;620296;222;31836;-74
2022/04/20 00:08:26;;;;;;;0.80;0.50;;;0.50;1.40;;;1.47;100.00;95078.94;639848;216;31780;-75
2022/04/20 00:11:08;;;;;;;0.80;0.80;;;0.30;1.40;;;1.27;100.00;95077.05;647863;216;31512;-74
2022/04/20 00:13:49;;;;;;;1.00;0.70;;;0.20;1.40;;;1.29;100.00;95075.26;619599;222;32013;-75
2022/04/20 00:16:31;;;;;;;0.70;0.70;;;0.20;1.40;;;1.26;100.00;95078.06;647981;216;31542;-74
2022/04/20 00:19:13;;;;;;;1.60;1.10;;;0.20;1.40;;;1.19;100.00;95071.71;648015;212;31563;-73
2022/04/20 00:21:54;;;;;;;0.80;0.70;;;0.20;1.40;;;1.17;100.00;95074.05;649232;216;31753;-73
2022/04/20 00:24:36;;;;;;;1.00;0.50;;;0.20;1.40;;;0.70;100.00;95078.98;648508;212;31616;-75
2022/04/20 00:27:19;;;;;;;1.10;0.60;;;-0.20;1.40;;;0.72;100.00;95088.18;648230;216;31624;-74
2022/04/20 00:30:01;;;;;;;2.58;1.10;;;-0.30;1.40;;;0.78;100.00;95077.91;647905;216;42104;-73
2022/04/20 00:32:43;;;;;;;0.50;0.50;;;-0.10;1.40;;;0.74;100.00;95072.30;646736;216;42573;-74
2022/04/20 00:35:51;;;;;;;0.93;0.52;;;-0.40;1.40;;;0.67;100.00;95068.81;646830;216;31541;-73
2022/04/20 00:38:33;;;;;;;1.55;0.93;;;-0.30;1.40;;;0.67;100.00;95068.34;647834;216;31561;-75
2022/04/20 00:41:14;;;;;;;0.40;0.40;;;-0.40;1.40;;;0.57;100.00;95059.60;647069;216;31547;-74
2022/04/20 00:43:56;;;;;;;0.80;0.80;;;-0.40;1.40;;;0.52;100.00;95056.80;645928;216;31943;-73
2022/04/20 00:46:38;;;;;;;0.80;0.80;;;-0.40;1.40;;;0.49;100.00;95050.48;647224;216;31520;-73
2022/04/20 00:49:20;;;;;;;0.47;0.47;;;-0.30;1.40;;;0.65;100.00;95053.33;647536;212;32063;-74
2022/04/20 00:52:01;;;;;;;0.53;0.53;;;-0.20;1.40;;;0.73;100.00;95046.84;648597;216;31664;-74
2022/04/20 00:54:43;;;;;;;1.00;0.60;;;-0.10;1.40;;;0.79;100.00;95051.46;617151;226;42447;-73
2022/04/20 00:57:26;;;;;;;0.80;0.80;;;0.00;1.40;;;0.45;100.00;95054.66;647796;216;31523;-74
2022/04/20 01:00:10;;;;;;;1.00;1.00;;;-0.60;1.40;;;0.10;100.00;95056.08;648770;212;31523;-73
2022/04/20 01:02:52;;;;;;;1.60;1.10;;;-1.00;1.40;;;-0.07;100.00;95059.73;648614;216;31529;-74
2022/04/20 01:05:34;;;;;;;0.90;0.70;;;-0.90;1.40;;;-0.08;100.00;95060.04;647789;216;31529;-74
2022/04/20 01:08:15;;;;;;;0.88;0.70;;;-0.90;1.40;;;0.02;100.00;95053.53;640230;216;31654;-74
2022/04/20 01:11:00;;;;;;;0.80;0.80;;;-0.90;1.40;;;-0.02;100.00;95053.67;648551;216;31647;-73
2022/04/20 01:13:42;;;;;;;0.60;0.60;;;-1.00;1.40;;;-0.06;100.00;95058.52;648379;216;33231;-75
2022/04/20 01:16:27;;;;;;;0.40;0.37;;;-0.90;1.40;;;0.05;100.00;95061.41;647634;216;31507;-74
2022/04/20 01:19:08;;;;;;;0.80;0.80;;;-0.80;1.40;;;0.11;100.00;95062.05;620639;226;32005;-73
2022/04/20 01:21:51;;;;;;;0.68;0.60;;;-0.70;1.40;;;0.23;100.00;95060.15;649053;216;31594;-73
2022/04/20 01:24:32;;;;;;;1.40;0.70;;;-0.60;1.40;;;0.23;100.00;95054.39;648184;216;31492;-74
2022/04/20 01:27:14;;;;;;;1.20;0.75;;;-0.70;1.40;;;0.23;100.00;95054.12;647865;216;31931;-74
2022/04/20 01:29:57;;;;;;;1.37;1.27;;;-0.70;1.40;;;0.10;100.00;95047.44;649201;212;31536;-74
2022/04/20 01:32:38;;;;;;;1.80;0.70;;;-0.90;1.40;;;0.04;100.00;95048.23;647615;216;31553;-73
2022/04/20 01:35:51;;;;;;;0.88;0.70;;;-1.00;1.40;;;-0.01;100.00;95048.23;647862;216;31596;-74
2022/04/20 01:38:32;;;;;;;1.30;0.82;;;-0.90;1.40;;;0.17;100.00;95043.47;647720;216;31493;-73
2022/04/20 01:41:14;;;;;;;0.60;0.60;;;-0.70;1.40;;;0.31;100.00;95046.42;647574;216;31741;-74
2022/04/20 01:43:56;;;;;;;0.60;0.60;;;-0.60;1.40;;;0.30;100.00;95049.34;647873;216;31506;-73
2022/04/20 01:46:41;;;;;;;0.65;0.65;;;-0.50;1.40;;;-0.12;100.00;95049.87;619964;226;32228;-73
2022/04/20 01:50:13;;;;;;;1.00;0.80;;;-1.10;1.40;;;-0.11;100.00;95040.72;647336;216;31522;-74
2022/04/20 01:52:55;;;;;;;1.10;1.00;;;-1.00;1.40;;;0.01;100.00;95045.78;649021;216;31544;-73
2022/04/20 01:55:37;;;;;;;2.83;1.15;;;-0.90;1.40;;;-0.02;100.00;95038.43;649000;216;31569;-74
2022/04/20 01:58:18;;;;;;;3.87;1.00;;;-1.00;1.40;;;-0.11;100.00;95033.63;647447;212;31610;-74
2022/04/20 02:01:00;;;;;;;1.45;0.80;;;-1.00;1.40;;;-0.04;100.00;95031.11;649030;216;31482;-74
2022/04/20 02:03:42;;;;;;;1.30;1.20;;;-0.90;1.40;;;-0.02;100.00;95032.83;620086;222;31880;-73
2022/04/20 02:06:24;;;;;;;0.90;0.70;;;-0.80;1.40;;;0.14;100.00;95035.28;648695;212;31502;-74
2022/04/20 02:09:07;;;;;;;0.60;0.60;;;-0.80;1.40;;;0.08;100.00;95030.41;648081;212;31633;-74
2022/04/20 02:11:50;;;;;;;1.20;0.62;;;-0.80;1.40;;;0.10;100.00;95032.67;649920;212;31495;-74
2022/04/20 02:14:33;;;;;;;1.58;0.90;;;-0.80;1.40;;;-0.23;100.00;95035.16;649223;216;31616;-74
2022/04/20 02:17:20;;;;;;;0.50;0.50;;;-1.00;1.40;;;-0.35;100.00;95031.70;647122;216;31642;-74
2022/04/20 02:20:02;;;;;;;0.90;0.60;;;-1.10;1.40;;;-0.17;100.00;95031.74;646616;212;31563;-74
2022/04/20 02:22:44;;;;;;;0.55;0.50;;;-1.10;1.40;;;-0.18;100.00;95030.14;648251;212;31502;-74
2022/04/20 02:25:26;;;;;;;1.70;0.90;;;-1.20;1.40;;;-0.10;100.00;95027.78;648034;216;31441;-73
2022/04/20 02:28:07;;;;;;;1.00;0.80;;;-0.90;1.40;;;0.08;100.00;95025.94;643634;216;31501;-75
2022/04/20 02:30:50;;;;;;;2.20;1.30;;;-0.80;1.40;;;0.29;100.00;95027.85;647885;212;32390;-74
2022/04/20 02:35:51;;;;;;;0.80;0.80;;;-0.80;1.40;;;0.11;100.00;95024.75;646593;212;31650;-74
2022/04/20 02:38:36;;;;;;;3.00;0.90;;;-0.70;1.40;;;0.22;100.00;95023.30;648985;216;32454;-75
2022/04/20 02:41:17;;;;;;;2.00;0.70;;;-0.60;1.40;;;0.24;100.00;95027.80;620714;226;32080;-73
2022/04/20 02:44:02;;;;;;;2.90;1.20;;;-0.70;1.40;;;0.37;100.00;95019.98;647501;212;31796;-73
2022/04/20 02:46:44;;;;;;;0.95;0.85;;;-0.50;1.40;;;0.41;100.00;95025.81;649032;212;31493;-74
2022/04/20 02:49:26;;;;;;;1.10;0.90;;;-0.40;1.40;;;0.33;100.00;95020.91;632650;220;31918;-73
2022/04/20 02:52:08;;;;;;;1.40;0.90;;;-0.60;1.40;;;0.26;100.00;95029.16;620193;222;31944;-74
2022/04/20 02:54:50;;;;;;;0.80;0.70;;;-0.70;1.40;;;0.15;100.00;95031.94;648644;216;31585;-73
2022/04/20 02:57:34;;;;;;;0.70;0.70;;;-0.80;1.40;;;0.11;100.00;95027.69;636315;216;31978;-74
2022/04/20 03:00:16;;;;;;;1.25;1.00;;;-0.70;1.40;;;-0.04;100.00;95026.63;647794;212;31574;-73
2022/04/20 03:02:59;;;;;;;1.20;1.10;;;-0.90;1.40;;;-0.05;100.00;95023.69;647223;216;31491;-75
2022/04/20 03:05:41;;;;;;;1.20;0.60;;;-1.00;1.40;;;-0.06;100.00;95021.22;647172;216;32143;-74
2022/04/20 03:08:26;;;;;;;1.17;0.85;;;-1.10;1.40;;;0.10;100.00;95018.61;637996;212;31668;-73
2022/04/20 03:11:08;;;;;;;0.60;0.60;;;-0.90;1.40;;;0.12;100.00;95021.41;620301;222;31923;-74
2022/04/20 03:13:50;;;;;;;1.10;1.00;;;-0.80;1.40;;;0.11;100.00;95024.37;648374;212;31562;-73
2022/04/20 03:16:32;;;;;;;2.92;1.15;;;-0.90;1.40;;;-0.12;100.00;95021.00;647653;216;31541;-74
2022/04/20 03:19:14;;;;;;;0.80;0.80;;;-1.10;1.40;;;-0.11;100.00;95022.28;647864;216;31577;-73
2022/04/20 03:21:58;;;;;;;0.70;0.60;;;-1.10;1.40;;;-0.23;100.00;95028.50;647101;212;32027;-73
2022/04/20 03:24:40;;;;;;;0.60;0.60;;;-1.10;1.40;;;-0.30;100.00;95026.71;648796;216;31575;-74
2022/04/20 03:27:22;;;;;;;0.60;0.60;;;-1.20;1.40;;;-0.34;100.00;95022.03;647842;212;31527;-73
2022/04/20 03:30:04;;;;;;;1.10;1.00;;;-1.30;1.40;;;-0.26;100.00;95021.27;647872;216;32212;-73
2022/04/20 03:32:46;;;;;;;1.55;1.10;;;-1.20;1.40;;;-0.11;100.00;95023.78;646775;212;31540;-74
2022/04/20 03:35:51;;;;;;;1.30;0.60;;;-1.10;1.40;;;0.01;100.00;95020.32;647244;212;31613;-74
2022/04/20 03:38:36;;;;;;;0.65;0.47;;;-1.00;1.40;;;0.10;100.00;95025.48;647580;212;31602;-75
2022/04/20 03:41:18;;;;;;;1.40;1.00;;;-0.80;1.40;;;0.18;100.00;95026.32;648829;216;31520;-74
2022/04/20 03:44:00;;;;;;;1.05;0.90;;;-0.80;1.40;;;0.04;100.00;95020.52;620351;226;31993;-73
2022/04/20 03:46:42;;;;;;;2.80;1.00;;;-0.90;1.40;;;0.08;100.00;95022.43;648568;216;31597;-73
2022/04/20 03:49:27;;;;;;;2.12;1.00;;;-0.90;1.40;;;0.13;100.00;95020.19;649007;216;32058;-74
2022/04/20 03:52:09;;;;;;;1.87;1.10;;;-0.80;1.40;;;0.12;100.00;95023.75;647865;212;31524;-73
2022/04/20 03:54:54;;;;;;;1.33;1.12;;;-0.80;1.40;;;0.13;100.00;95020.72;646696;216;31565;-74
2022/04/20 03:57:36;;;;;;;0.70;0.52;;;-0.80;1.40;;;0.12;100.00;95030.41;647449;216;31686;-75
2022/04/20 04:00:20;;;;;;;3.72;0.90;;;-0.70;1.40;;;0.11;100.00;95031.89;647509;212;31559;-74
2022/04/20 04:03:01;;;;;;;1.70;1.60;;;-0.80;1.40;;;0.12;100.00;95032.76;647905;212;31601;-74
2022/04/20 04:05:43;;;;;;;1.17;0.87;;;-0.70;1.40;;;0.20;100.00;95029.73;647784;212;31544;-75
2022/04/20 04:08:25;;;;;;;1.50;1.40;;;-0.70;1.40;;;0.18;100.00;95023.92;647035;212;31617;-74
2022/04/20 04:11:07;;;;;;;1.70;1.40;;;-0.70;1.40;;;0.18;100.00;95028.28;649616;212;31565;-74
2022/04/20 04:13:51;;;;;;;1.77;0.90;;;-0.70;1.40;;;0.19;100.00;95019.75;647685;212;31671;-74
2022/04/20 04:16:36;;;;;;;3.45;1.37;;;-0.80;1.40;;;0.17;100.00;95022.68;647630;216;31530;-75
2022/04/20 04:19:16;;;;;;;1.58;1.30;;;-0.80;1.40;;;0.10;100.00;95018.13;620227;226;32007;-73
2022/04/20 04:21:58;;;;;;;1.75;1.65;;;-0.90;1.40;;;0.14;100.00;95020.20;647289;216;31486;-74
2022/04/20 04:24:40;;;;;;;2.35;1.10;;;-0.90;1.40;;;0.23;100.00;95029.13;642122;215;31616;-75
2022/04/20 04:27:22;;;;;;;1.77;1.15;;;-0.80;1.40;;;0.21;100.00;95031.82;647070;216;42425;-74
2022/04/20 04:30:04;;;;;;;2.58;2.03;;;-0.80;1.40;;;0.25;100.00;95029.73;647624;212;31697;-74
2022/04/20 04:32:47;;;;;;;4.10;1.55;;;-0.70;1.40;;;0.31;100.00;95031.07;647520;216;31907;-73
2022/04/20 04:35:53;;;;;;;1.30;1.20;;;-0.70;1.40;;;0.32;100.00;95032.36;648069;212;31557;-74
2022/04/20 04:38:36;;;;;;;1.50;1.05;;;-0.60;1.40;;;0.30;100.00;95026.80;646773;216;31699;-75
2022/04/20 04:41:26;;;;;;;2.80;1.50;;;-0.60;1.40;;;0.35;100.00;95020.12;649712;216;32218;-74
2022/04/20 04:44:09;;;;;;;2.87;2.30;;;-0.60;1.40;;;0.19;100.00;95026.91;647848;216;31687;-75
2022/04/20 04:49:39;;;;;;;1.45;1.27;;;-0.70;1.40;;;0.49;100.00;95026.69;647657;212;31568;-73
2022/04/20 04:52:24;;;;;;;4.22;1.55;;;-0.50;1.40;;;0.50;100.00;95028.41;648617;213;31615;-74
2022/04/20 04:55:06;;;;;;;4.60;2.10;;;-0.50;1.40;;;0.62;100.00;95029.88;646931;216;31557;-74
2022/04/20 04:57:48;;;;;;;2.00;1.70;;;-0.40;1.40;;;0.60;100.00;95027.09;620323;226;32190;-73
2022/04/20 05:00:30;;;;;;;1.10;1.00;;;-0.50;1.40;;;0.55;100.00;95032.67;647781;212;31536;-74
2022/04/20 05:03:14;;;;;;;2.50;1.80;;;-0.50;1.40;;;0.57;100.00;95032.77;648679;216;42197;-73
2022/04/20 05:05:54;;;;;;;1.75;1.62;;;-0.50;1.40;;;0.72;100.00;95030.78;647012;216;31587;-74
2022/04/20 05:08:36;;;;;;;4.70;1.70;;;-0.40;1.40;;;0.81;100.00;95038.30;636527;212;31683;-73
2022/04/20 05:11:20;;;;;;;1.87;1.52;;;-0.30;1.40;;;0.76;100.00;95043.48;620303;226;32068;-75
2022/04/20 05:14:03;;;;;;;1.77;1.67;;;-0.30;1.40;;;0.76;100.00;95039.06;647165;216;31548;-74
2022/04/20 05:16:45;;;;;;;7.40;1.62;;;-0.20;1.40;;;0.81;100.00;95035.58;649602;216;31561;-74
2022/04/20 05:19:27;;;;;;;3.70;1.95;;;-0.20;1.40;;;0.97;100.00;95039.58;649484;216;31589;-74
2022/04/20 05:22:09;;;;;;;1.55;1.00;;;-0.10;1.40;;;1.06;100.00;95035.59;648876;216;31548;-74
2022/04/20 05:24:51;;;;;;;2.33;1.48;;;0.00;1.40;;;1.15;100.00;95033.24;647002;216;31878;-74
2022/04/20 05:27:33;;;;;;;2.28;1.40;;;0.10;1.40;;;1.26;100.00;95032.73;648041;212;31561;-74
2022/04/20 05:30:17;;;;;;;4.90;2.62;;;0.20;1.40;;;1.38;100.00;95027.93;647403;216;31620;-75
2022/04/20 05:32:59;;;;;;;6.05;2.55;;;0.30;1.40;;;1.46;100.00;95025.73;646045;216;31538;-76
2022/04/20 05:35:52;;;;;;;1.83;1.35;;;0.40;1.40;;;1.54;100.00;95028.86;647323;212;31568;-75
2022/04/20 05:44:13;;;;;;;6.97;1.90;;;0.90;1.40;;;2.01;100.00;95026.63;646287;216;31600;-75
2022/04/20 05:46:55;;;;;;;1.95;1.58;;;1.00;1.40;;;2.25;100.00;95030.41;646323;216;31954;-74
2022/04/20 05:49:37;;;;;;;3.62;2.55;;;1.20;1.40;;;2.41;100.00;95038.21;647982;216;42978;-75
2022/04/20 05:52:19;;;;;;;1.33;1.20;;;1.30;1.40;;;2.58;100.00;95042.03;648300;212;31588;-74
2022/04/20 05:55:01;;;;;;;2.47;1.83;;;1.50;1.40;;;2.68;100.00;95039.77;618313;222;42765;-74
2022/04/20 05:57:47;;;;;;;3.50;2.35;;;1.60;1.40;;;2.76;100.00;95039.30;647550;216;31578;-75
2022/04/20 06:00:25;;;;;;;2.65;1.62;;;1.70;1.40;;;2.83;100.00;95043.35;647309;212;31613;-74
2022/04/20 06:03:07;;;;;;;3.45;1.37;;;1.90;1.40;;;2.98;100.00;95043.83;632700;222;31929;-74
2022/04/20 06:05:48;;;;;;;3.70;2.40;;;2.00;1.40;;;3.19;100.00;95043.43;647185;216;31571;-75
2022/04/20 06:08:34;;;;;;;3.35;2.40;;;2.20;1.40;;;3.41;100.00;95044.20;611455;226;32210;-75
2022/04/20 06:11:22;;;;;;;4.37;1.95;;;2.40;1.40;;;3.61;100.00;95044.52;618617;226;31899;-74
2022/04/20 06:14:10;;;;;;;2.85;2.22;;;2.60;1.40;;;3.75;100.00;95040.88;647068;216;31627;-76
2022/04/20 06:16:51;;;;;;;2.30;2.05;;;2.80;1.40;;;3.93;100.00;95036.88;648205;216;31517;-76
2022/04/20 06:19:33;;;;;;;3.03;2.03;;;3.00;1.40;;;4.18;100.00;95038.91;647806;212;31561;-77
2022/04/20 06:22:21;;;;;;;2.95;2.60;;;3.40;1.40;;;4.25;100.00;95035.88;645978;216;31584;-76
2022/04/20 06:25:09;;;;;;;2.30;1.73;;;3.50;1.40;;;4.38;100.00;95031.61;647900;212;31577;-77
2022/04/20 06:27:54;;;;;;;2.70;1.92;;;3.70;1.40;;;4.61;100.00;95032.05;646688;216;31547;-76
2022/04/20 06:30:36;;;;;;;5.28;2.10;;;3.90;1.40;;;4.84;100.00;95028.31;647965;216;32089;-75
2022/04/20 06:35:53;;;;;;;3.90;2.60;;;4.10;1.40;;;4.96;100.00;95023.29;646496;216;31663;-76
2022/04/20 06:38:34;;;;;;;2.75;2.55;;;4.30;1.40;;;5.16;100.00;95026.28;647056;212;31632;-75
2022/04/20 06:41:16;;;;;;;4.20;2.40;;;4.60;1.40;;;5.16;100.00;95025.05;647507;212;31550;-76
2022/04/20 06:43:57;;;;;;;3.00;2.30;;;4.50;1.40;;;5.29;100.00;95023.73;619854;226;31936;-77
2022/04/20 06:46:42;;;;;;;2.53;2.00;;;4.60;1.40;;;4.96;100.00;95020.02;641935;217;31642;-76
2022/04/20 06:49:24;;;;;;;4.20;2.83;;;4.40;1.40;;;5.19;100.00;95016.69;619265;222;31922;-76
2022/04/20 07:00:28;;;;;;;2.40;2.15;;;5.20;1.40;;;6.32;100.00;95021.16;646618;212;31567;-76
2022/04/20 07:03:10;;;;;;;4.90;2.30;;;5.40;1.40;;;6.49;100.00;95022.64;647252;216;31553;-77
2022/04/20 07:05:52;;;;;;;3.72;3.22;;;5.50;1.40;;;6.50;100.00;95022.89;648307;216;31599;-76
2022/04/20 07:08:34;;;;;;;2.62;2.42;;;5.70;1.40;;;6.51;100.00;95014.56;636285;216;31883;-78
2022/04/20 07:11:18;;;;;;;4.80;2.87;;;5.80;1.40;;;6.80;100.00;95009.77;643017;215;31547;-77
2022/04/20 07:14:00;;;;;;;2.28;2.08;;;5.90;1.40;;;6.89;100.00;95010.48;619833;226;31902;-76
2022/04/20 07:16:42;;;;;;;3.55;3.03;;;6.00;1.40;;;6.64;100.00;95008.89;646463;216;31742;-77
2022/04/20 07:19:25;;;;;;;2.45;1.83;;;5.90;1.40;;;6.66;100.00;95003.43;647107;216;31616;-77
2022/04/20 07:22:07;;;;;;;2.40;2.20;;;6.00;1.40;;;6.64;100.00;95002.38;618933;222;32111;-77
2022/04/20 07:24:52;;;;;;;2.70;2.10;;;6.00;1.40;;;6.88;100.00;95000.66;621278;222;31896;-76
2022/04/20 07:27:34;;;;;;;3.58;2.50;;;6.20;1.40;;;7.20;100.00;94999.08;647044;212;42264;-76
2022/04/20 07:30:22;;;;;;;2.90;2.60;;;6.30;1.40;;;7.50;100.00;95000.79;645528;212;42383;-75
2022/04/20 07:35:57;;;;;;;4.20;3.17;;;6.60;1.40;;;7.81;100.00;95010.50;646544;216;32194;-77
2022/04/20 07:38:39;;;;;;;5.03;2.65;;;6.90;1.40;;;8.11;100.00;95007.20;620468;226;32319;-75
2022/04/20 07:41:21;;;;;;;2.10;1.90;;;7.00;1.40;;;8.21;99.73;95008.72;648084;216;31568;-76
2022/04/20 07:44:03;;;;;;;3.30;2.80;;;7.20;1.40;;;8.35;98.40;95004.12;646636;216;31605;-77
2022/04/20 07:46:47;;;;;;;2.00;1.80;;;7.30;1.40;;;8.49;96.04;95010.89;645983;213;42201;-75
2022/04/20 07:52:24;;;;;;;1.95;1.85;;;7.50;1.40;;;8.63;93.32;95007.27;647335;212;31538;-77
2022/04/20 07:55:10;;;;;;;2.95;2.28;;;7.60;1.40;;;8.88;90.33;95010.66;648676;216;31563;-77
2022/04/20 07:57:53;;;;;;;2.97;2.20;;;7.80;1.40;;;8.87;87.91;95010.90;646188;212;31762;-77
2022/04/20 08:00:38;;;;;;;4.20;2.50;;;7.80;1.40;;;9.01;90.24;95014.23;618391;226;31947;-76
2022/04/20 08:03:22;;;;;;;2.27;2.07;;;8.00;1.40;;;8.71;91.59;95010.83;618784;226;32292;-75
2022/04/20 08:06:04;;;;;;;3.35;3.03;;;7.90;1.40;;;9.09;91.59;95015.70;647422;212;31738;-77
2022/04/20 08:08:46;;;;;;;3.50;2.70;;;8.00;1.40;;;9.17;89.02;95022.31;635347;212;31707;-77
2022/04/20 08:11:27;;;;;;;4.32;2.33;;;8.00;1.40;;;9.36;88.24;95017.52;648762;216;31591;-78
2022/04/20 08:14:15;;;;;;;2.60;2.20;;;8.30;1.40;;;9.38;83.88;95014.80;646942;216;31591;-75
2022/04/20 08:17:13;;;;;;;2.57;2.10;;;8.40;1.40;;;8.97;85.29;95019.88;647863;212;34455;-77
2022/04/20 08:20:01;;;;;;;2.25;2.05;;;8.20;1.40;;;9.59;86.10;95016.27;618598;222;32057;-77
2022/04/20 08:22:43;;;;;;;2.60;2.03;;;8.80;1.40;;;8.97;82.12;95019.61;619482;222;31957;-76
2022/04/20 08:25:34;;;;;;;3.50;1.83;;;8.40;1.40;;;9.78;84.82;95015.60;618341;222;32134;-76
2022/04/20 08:28:15;;;;;;;3.65;2.22;;;9.00;1.40;;;10.09;82.12;95014.52;645793;212;31753;-75
2022/04/20 08:31:04;;;;;;;3.30;2.20;;;9.20;1.40;;;10.25;79.57;95009.25;647183;216;31532;-76
2022/04/20 08:35:53;;;;;;;2.45;2.25;;;9.60;1.40;;;10.50;78.35;95005.98;620656;226;31905;-77
2022/04/20 08:38:38;;;;;;;3.27;2.63;;;9.70;1.40;;;10.61;77.50;95012.63;647127;212;31553;-76
2022/04/20 08:41:25;;;;;;;4.50;2.50;;;9.90;1.40;;;10.62;74.27;95012.27;648438;212;31547;-76
2022/04/20 08:44:07;;;;;;;2.70;2.37;;;9.90;1.40;;;11.11;76.21;95010.08;648771;212;31551;-76
2022/04/20 08:46:52;;;;;;;2.47;2.27;;;10.20;1.40;;;11.15;71.90;95004.55;647976;216;31661;-78
2022/04/20 08:49:36;;;;;;;3.30;2.40;;;10.40;1.40;;;11.47;73.34;95004.06;619845;226;42773;-78
2022/04/20 08:55:09;;;;;;;2.85;2.30;;;10.90;1.40;;;12.29;70.09;94996.28;648388;216;31601;-78
2022/04/20 08:57:56;;;;;;;4.00;2.20;;;11.10;1.40;;;12.55;68.39;94999.41;646708;212;31596;-76
2022/04/20 09:00:40;;;;;;;3.05;2.30;;;11.70;1.40;;;13.92;62.78;94998.49;648115;216;42591;-77
2022/04/20 09:03:28;;;;;;;3.43;2.53;;;14.50;1.40;;;15.52;57.06;94990.81;645688;212;42797;-75
2022/04/20 09:06:16;;;;;;;2.53;2.12;;;17.70;1.40;;;16.78;52.77;94987.27;647806;216;31613;-76
2022/04/20 09:09:00;;;;;;;5.12;2.30;;;18.80;1.40;;;18.38;49.81;94986.85;647407;212;42738;-78
2022/04/20 09:11:43;;;;;;;2.60;2.40;;;18.70;1.40;;;19.15;46.65;94979.84;647611;216;31569;-77
2022/04/20 09:14:31;;;;;;;2.50;2.30;;;18.80;1.40;;;17.20;48.17;94994.98;645257;216;31582;-76
2022/04/20 09:17:20;;;;;;;3.17;2.80;;;17.80;1.40;;;18.17;45.75;94988.63;647219;216;31544;-78
2022/04/20 09:20:09;;;;;;;2.50;2.15;;;18.70;1.40;;;19.84;41.42;94979.82;646461;216;31578;-76
2022/04/20 09:23:04;;;;;;;2.92;2.10;;;19.20;1.40;;;15.07;42.82;94992.61;619502;225;31885;-76
2022/04/20 09:25:48;;;;;;;2.20;1.73;;;16.30;1.40;;;14.52;45.90;94994.06;619863;226;31855;-78
2022/04/20 09:28:36;;;;;;;2.30;2.10;;;15.80;1.40;;;16.58;39.09;94984.77;619143;226;31887;-76
2022/04/20 09:31:36;;;;;;;1.80;1.60;;;17.30;1.40;;;19.30;37.49;94972.63;619463;226;43102;-78
2022/04/20 09:35:57;;;;;;;2.40;2.20;;;18.20;1.40;;;15.68;40.46;94984.59;647128;216;31602;-77
2022/04/20 09:39:01;;;;;;;1.95;1.70;;;15.10;1.40;;;14.87;41.63;94982.46;647045;216;31538;-76
2022/04/20 09:41:55;;;;;;;1.90;1.80;;;16.00;1.40;;;18.85;37.65;94970.45;646102;216;31563;-76
2022/04/20 09:44:40;;;;;;;2.47;2.25;;;17.90;1.40;;;15.09;43.04;94977.77;647341;216;42188;-76
2022/04/20 09:50:23;;;;;;;2.70;2.30;;;18.10;1.40;;;20.90;34.52;94958.52;646090;216;42175;-76
2022/04/20 09:53:13;;;;;;;3.97;2.00;;;20.20;1.40;;;21.44;35.00;94950.23;647209;216;31601;-80
2022/04/20 09:55:54;;;;;;;2.85;2.10;;;21.00;1.40;;;17.56;37.65;94966.19;622323;222;32002;-78
2022/04/20 09:58:38;;;;;;;3.05;1.80;;;16.30;1.40;;;17.92;38.24;94962.95;647599;216;31551;-76
2022/04/20 10:04:06;;;;;;;1.85;1.75;;;18.20;1.40;;;17.27;35.08;94961.06;647133;216;32173;-76
2022/04/20 10:06:53;;;;;;;2.42;2.00;;;17.80;1.40;;;18.48;35.54;94962.94;644610;216;31705;-78
2022/04/20 10:09:36;;;;;;;2.60;1.95;;;17.90;1.40;;;14.52;39.72;94965.13;647838;212;31658;-78
2022/04/20 10:12:18;;;;;;;1.60;1.50;;;14.80;1.40;;;17.73;36.59;94957.91;647570;216;32060;-78
2022/04/20 10:17:45;;;;;;;1.95;1.75;;;18.00;1.40;;;15.88;38.34;94955.13;620212;222;31850;-77
2022/04/20 10:20:28;;;;;;;3.55;1.95;;;16.60;1.40;;;18.90;37.78;94948.93;646885;216;31549;-78
2022/04/20 10:23:16;;;;;;;2.78;2.30;;;19.20;1.40;;;22.53;34.37;94937.86;646027;216;31558;-76
2022/04/20 10:26:03;;;;;;;8.02;2.80;;;21.30;1.40;;;25.37;30.67;94930.30;647902;216;31619;-77
2022/04/20 10:29:03;;;;;;;2.92;2.72;;;22.00;1.40;;;22.52;30.46;94938.55;647755;212;31608;-77
2022/04/20 10:31:52;;;;;;;1.77;1.58;;;20.80;1.40;;;19.40;31.25;94943.88;646314;212;42198;-77
2022/04/20 10:35:58;;;;;;;2.07;1.67;;;15.30;1.40;;;16.80;35.50;94938.67;618887;226;31975;-77
2022/04/20 10:38:39;;;;;;;2.10;1.70;;;16.50;1.40;;;17.22;35.00;94937.77;646339;216;42235;-75
2022/04/20 10:41:24;;;;;;;2.47;2.00;;;17.50;1.40;;;19.30;35.58;94927.88;620236;222;31886;-77
2022/04/20 10:44:12;;;;;;;2.25;1.67;;;19.80;1.40;;;18.80;30.33;94930.39;646501;216;31980;-77
2022/04/20 10:46:56;;;;;;;3.72;1.90;;;17.90;1.40;;;21.32;32.03;94914.97;645885;216;31882;-77
2022/04/20 10:49:44;;;;;;;2.05;1.50;;;20.00;1.40;;;20.08;28.66;94926.23;646549;216;42175;-79
2022/04/20 10:52:30;;;;;;;1.95;1.75;;;18.90;1.40;;;21.87;30.26;94918.44;618496;222;31843;-78
2022/04/20 10:55:12;;;;;;;1.80;1.58;;;19.80;1.40;;;18.17;32.11;94921.78;648443;216;31733;-79
2022/04/20 10:58:05;;;;;;;2.20;1.60;;;17.20;1.40;;;18.19;33.14;94919.42;646359;212;31646;-75
2022/04/20 11:03:53;;;;;;;3.00;2.20;;;17.90;1.40;;;20.91;35.54;94902.50;632438;221;31725;-76
2022/04/20 11:07:19;;;;;;;2.15;1.90;;;20.40;1.40;;;25.89;28.00;94889.11;647367;216;31611;-78
2022/04/20 11:10:05;;;;;;;2.05;1.85;;;22.50;1.40;;;25.45;26.34;94882.65;646145;216;31590;-77
2022/04/20 11:21:16;;;;;;;2.60;2.22;;;22.20;1.40;;;26.57;28.29;94874.89;619623;226;31906;-78
2022/04/20 11:24:05;;;;;;;2.72;2.53;;;22.10;1.40;;;28.01;26.82;94869.95;629503;221;31940;-75
2022/04/20 11:26:54;;;;;;;3.15;2.80;;;22.50;1.40;;;25.15;26.79;94873.45;648074;216;31595;-78
2022/04/20 11:32:14;;;;;;;3.15;2.20;;;21.70;1.40;;;27.61;26.53;94873.30;646191;216;31561;-79
2022/04/20 11:35:59;;;;;;;2.93;2.50;;;22.40;1.40;;;27.75;26.00;94867.67;647707;216;31643;-78
2022/04/20 11:38:48;;;;;;;5.22;2.62;;;21.30;1.40;;;29.43;25.21;94860.59;646237;216;31573;-75
2022/04/20 11:41:31;;;;;;;3.03;2.62;;;22.10;1.40;;;25.59;25.34;94864.81;646646;216;32133;-78
2022/04/20 11:44:26;;;;;;;2.60;2.17;;;21.00;1.40;;;28.40;24.89;94861.84;648927;216;31701;-80
2022/04/20 11:47:17;;;;;;;2.78;2.50;;;21.80;1.40;;;27.49;26.02;94866.75;645654;212;31728;-76
2022/04/20 11:50:02;;;;;;;4.93;2.50;;;22.10;1.40;;;29.20;24.59;94853.27;647277;216;31634;-79
2022/04/20 11:52:45;;;;;;;2.30;2.10;;;22.70;1.40;;;27.01;26.57;94853.41;648031;216;31657;-78
2022/04/20 11:55:34;;;;;;;2.30;2.10;;;22.10;1.40;;;26.17;25.26;94848.14;647165;212;31609;-78
2022/04/20 11:58:15;;;;;;;3.00;2.45;;;20.40;1.40;;;26.68;26.24;94852.41;647718;216;42852;-78
2022/04/20 12:00:58;;;;;;;2.40;2.20;;;21.00;1.40;;;28.90;25.40;94844.05;632406;217;32616;-78
2022/04/20 12:03:43;;;;;;;2.62;2.37;;;21.80;1.40;;;28.00;25.21;94836.66;616292;226;31901;-78
2022/04/20 12:06:25;;;;;;;3.37;2.60;;;21.10;1.40;;;26.52;24.21;94848.29;645945;216;31560;-78
2022/04/20 12:09:07;;;;;;;2.80;2.12;;;20.60;1.40;;;25.89;26.54;94844.97;632576;222;31712;-78
2022/04/20 12:11:51;;;;;;;2.33;1.90;;;20.50;1.40;;;26.56;24.60;94834.61;646642;212;31575;-79
2022/04/20 12:14:35;;;;;;;4.75;2.35;;;21.20;1.40;;;24.54;25.55;94840.94;647201;212;31551;-77
2022/04/20 12:17:20;;;;;;;4.00;2.10;;;20.10;1.40;;;27.43;24.95;94837.11;619159;222;42576;-79
2022/04/20 12:20:07;;;;;;;2.92;2.22;;;22.20;1.40;;;29.60;22.49;94831.88;645624;216;34205;-78
2022/04/20 12:25:29;;;;;;;2.40;2.20;;;21.70;1.40;;;23.91;24.01;94844.48;648330;212;31528;-78
2022/04/20 12:31:04;;;;;;;3.22;2.87;;;19.90;1.40;;;28.83;22.31;94824.62;647729;212;31565;-78
2022/04/20 12:38:43;;;;;;;3.28;1.92;;;22.40;1.40;;;28.88;22.30;94818.64;616714;226;31957;-77
2022/04/20 12:41:51;;;;;;;2.78;2.00;;;21.80;1.40;;;29.93;20.89;94810.23;646992;212;32091;-78
2022/04/20 12:45:02;;;;;;;3.28;2.00;;;21.40;1.40;;;23.95;24.03;94823.27;646572;212;31706;-75
2022/04/20 12:47:40;;;;;;;2.10;2.00;;;18.80;1.40;;;26.89;23.34;94816.06;646985;212;31526;-77
2022/04/20 12:50:28;;;;;;;1.77;1.58;;;20.90;1.40;;;27.88;21.14;94801.83;647977;212;31627;-78